Time;durP1;ratioP1;P1;durP2;ratioP2;P2;SDS_P1;SDS_P2;PMS_P1;PMS_P2;Temp;Humidity;BMP_temperature;BMP_pressure;BME280_temperature;BME280_humidity;BME280_pressure;Samples;Min_cycle;Max_cycle;Signal;HPM_P1;HPM_P2
2022/09/12 00:01:16;;;;;;;72.00;31.73;;;;;;;14.83;95.75;101309.03;5094614;28;20115;-59
2022/09/12 00:03:42;;;;;;;64.87;31.73;;;;;;;14.85;95.59;101304.34;5094872;28;20109;-58
2022/09/12 00:06:16;;;;;;;70.32;31.73;;;;;;;14.79;94.93;101305.84;5094006;28;20443;-58
2022/09/12 00:08:47;;;;;;;61.47;30.67;;;;;;;14.83;95.23;101306.34;5094824;28;20040;-58
2022/09/12 00:11:13;;;;;;;66.78;31.52;;;;;;;14.80;95.27;101301.31;5094645;28;20036;-58
2022/09/12 00:13:41;;;;;;;75.10;33.25;;;;;;;14.74;96.01;101302.84;5094594;28;20052;-58
2022/09/12 00:16:26;;;;;;;63.90;31.27;;;;;;;14.67;96.85;101300.00;5094865;28;20105;-58
2022/09/12 00:18:53;;;;;;;66.00;32.03;;;;;;;14.72;96.85;101304.84;5094946;28;20048;-58
2022/09/12 00:21:21;;;;;;;64.78;31.60;;;;;;;14.70;96.64;101301.50;5094278;28;20036;-58
2022/09/12 00:23:48;;;;;;;70.88;31.40;;;;;;;14.69;96.68;101295.31;5094488;28;20044;-59
2022/09/12 00:26:16;;;;;;;65.40;32.80;;;;;;;14.70;96.37;101290.84;5094366;28;20093;-58
2022/09/12 00:28:43;;;;;;;62.35;30.60;;;;;;;14.70;95.35;101290.84;5093910;28;20082;-59
2022/09/12 00:31:13;;;;;;;64.80;31.70;;;;;;;14.62;95.47;101296.16;5094324;28;20036;-58
2022/09/12 00:33:40;;;;;;;66.13;31.65;;;;;;;14.66;95.95;101295.66;5093981;28;20036;-58
2022/09/12 00:36:13;;;;;;;66.78;30.75;;;;;;;14.62;96.17;101294.31;5094092;28;20040;-58
2022/09/12 00:38:41;;;;;;;61.53;30.88;;;;;;;14.53;96.34;101292.63;5093850;28;20048;-58
2022/09/12 00:41:17;;;;;;;70.15;30.98;;;;;;;14.61;95.18;101290.00;5093979;28;20036;-58
2022/09/12 00:43:47;;;;;;;67.38;31.35;;;;;;;14.64;94.95;101289.63;5093728;28;20046;-58
2022/09/12 00:46:36;;;;;;;60.78;29.95;;;;;;;14.67;94.65;101286.66;5094117;28;20105;-58
2022/09/12 00:49:11;;;;;;;65.70;30.45;;;;;;;14.61;94.38;101283.78;5101042;28;20039;-59
2022/09/12 00:51:44;;;;;;;65.70;31.48;;;;;;;14.58;95.67;101283.13;5114110;28;20089;-58
2022/09/12 00:54:16;;;;;;;62.88;30.38;;;;;;;14.63;96.10;101277.31;5113373;28;20123;-58
2022/09/12 00:56:46;;;;;;;63.80;30.65;;;;;;;14.65;95.80;101277.16;5114163;28;20040;-58
2022/09/12 00:59:21;;;;;;;63.75;31.17;;;;;;;14.63;95.22;101266.63;5113992;28;20071;-58
2022/09/12 01:01:49;;;;;;;62.83;30.08;;;;;;;14.59;95.06;101266.13;5112664;28;20063;-59
2022/09/12 01:04:19;;;;;;;63.17;30.65;;;;;;;14.56;95.97;101268.25;5113504;28;20199;-58
2022/09/12 01:06:47;;;;;;;67.75;31.98;;;;;;;14.55;95.66;101269.25;5092842;28;20051;-58
2022/09/12 01:09:19;;;;;;;66.55;29.63;;;;;;;14.50;95.34;101268.94;5075902;28;20436;-58
2022/09/12 01:11:47;;;;;;;63.95;30.55;;;;;;;14.48;95.89;101269.09;5092179;28;20052;-58
2022/09/12 01:14:15;;;;;;;65.85;30.52;;;;;;;14.45;96.31;101277.44;5093545;28;20040;-58
2022/09/12 01:16:44;;;;;;;63.67;30.88;;;;;;;14.44;96.00;101265.09;5093453;28;20047;-58
2022/09/12 01:19:37;;;;;;;64.90;30.30;;;;;;;14.44;95.67;101274.94;5093100;28;20051;-59
2022/09/12 01:27:49;;;;;;;63.85;30.27;;;;;;;14.45;96.04;101264.09;5109967;27;20350;-57
2022/09/12 01:33:25;;;;;;;62.50;30.35;;;;;;;14.40;95.77;101255.75;5069566;28;20044;-57
2022/09/12 01:38:41;;;;;;;60.53;29.10;;;;;;;14.42;96.19;101256.41;5109989;27;20343;-57
2022/09/12 01:46:54;;;;;;;60.28;29.65;;;;;;;14.33;96.38;101254.75;5069334;28;20356;-57
2022/09/12 01:49:26;;;;;;;61.00;29.27;;;;;;;14.31;96.14;101248.75;5069430;28;20083;-58
2022/09/12 01:52:17;;;;;;;60.28;30.00;;;;;;;14.32;96.07;101251.25;5069365;28;20106;-57
2022/09/12 01:54:50;;;;;;;66.88;29.20;;;;;;;14.30;95.99;101252.44;5069309;28;20086;-57
2022/09/12 01:57:26;;;;;;;55.10;27.55;;;;;;;14.29;96.18;101242.75;5068969;28;20051;-57
2022/09/12 01:59:57;;;;;;;58.63;28.77;;;;;;;14.31;95.89;101246.06;5069540;28;20512;-57
2022/09/12 02:02:32;;;;;;;55.33;28.42;;;;;;;14.25;96.29;101242.22;5068084;28;20433;-57
2022/09/12 02:05:15;;;;;;;62.00;28.33;;;;;;;14.27;96.36;101236.75;5068352;28;20494;-57
2022/09/12 02:07:47;;;;;;;59.65;28.40;;;;;;;14.27;96.31;101229.56;5069062;28;20402;-57
2022/09/12 02:10:20;;;;;;;57.75;27.00;;;;;;;14.28;96.53;101235.72;5069126;28;20098;-57
2022/09/12 02:13:10;;;;;;;53.92;27.45;;;;;;;14.31;95.93;101230.06;5069076;28;20162;-57
2022/09/12 02:15:42;;;;;;;53.50;27.35;;;;;;;14.27;95.64;101228.72;5068685;28;20037;-57
2022/09/12 02:18:11;;;;;;;;;;;;;;;14.31;95.58;101227.38;5069557;28;20040;-57
2022/09/12 02:20:40;;;;;;;56.17;25.15;;;;;;;14.30;95.41;101236.41;5068500;28;19955;-57
2022/09/12 02:23:21;;;;;;;55.67;26.20;;;;;;;14.26;95.59;101232.38;5067822;28;20123;-57
2022/09/12 02:25:53;;;;;;;55.10;26.52;;;;;;;14.15;95.56;101231.72;5068731;28;20041;-57
2022/09/12 02:28:29;;;;;;;51.88;26.13;;;;;;;14.17;95.61;101226.22;5068658;28;20086;-57
2022/09/12 02:31:20;;;;;;;49.00;24.83;;;;;;;14.17;95.37;101226.22;5068699;28;20044;-58
2022/09/12 02:37:06;;;;;;;51.45;25.30;;;;;;;14.33;94.67;101225.38;5110136;27;20381;-57
2022/09/12 02:39:34;;;;;;;46.40;24.58;;;;;;;14.32;94.68;101219.22;5110595;28;20126;-52
2022/09/12 02:42:02;;;;;;;49.13;23.38;;;;;;;14.30;94.75;101228.41;5108946;28;20040;-53
2022/09/12 02:44:32;;;;;;;49.13;24.10;;;;;;;14.27;94.85;101226.88;5109837;28;20067;-52
2022/09/12 02:47:10;;;;;;;48.85;24.63;;;;;;;14.19;95.34;101221.56;5109718;28;20386;-52
2022/09/12 02:49:37;;;;;;;51.15;24.13;;;;;;;14.19;95.46;101216.22;5102461;28;20047;-53
2022/09/12 02:52:04;;;;;;;53.00;24.25;;;;;;;14.19;94.97;101211.72;5089465;28;20048;-53
2022/09/12 02:54:31;;;;;;;47.67;24.95;;;;;;;14.21;95.28;101214.22;5088869;28;20041;-53
2022/09/12 02:56:57;;;;;;;46.17;23.40;;;;;;;14.19;95.00;101209.06;5089562;28;20044;-52
2022/09/12 02:59:25;;;;;;;50.28;23.83;;;;;;;14.22;94.92;101207.88;5089410;28;20404;-53
2022/09/12 03:02:11;;;;;;;50.80;23.67;;;;;;;14.19;94.86;101201.03;5089081;28;20044;-52
2022/09/12 03:04:52;;;;;;;48.83;22.73;;;;;;;14.24;94.82;101213.03;5092417;28;20043;-52
2022/09/12 03:07:48;;;;;;;48.70;23.25;;;;;;;14.17;94.82;101203.06;5107862;28;20067;-52
2022/09/12 03:10:26;;;;;;;49.50;23.85;;;;;;;14.16;94.96;101205.88;5109272;28;20048;-50
2022/09/12 03:13:23;;;;;;;49.22;23.35;;;;;;;14.15;94.54;101206.88;5109277;28;20128;-53
2022/09/12 03:19:18;;;;;;;49.03;23.55;;;;;;;14.08;94.95;101208.53;5109572;27;20139;-52
2022/09/12 03:22:11;;;;;;;51.88;23.10;;;;;;;14.05;95.13;101196.38;5109758;28;20312;-51
2022/09/12 03:24:57;;;;;;;44.47;22.45;;;;;;;14.06;95.09;101202.53;5109895;28;20071;-53
2022/09/12 03:27:32;;;;;;;45.90;22.42;;;;;;;14.02;95.30;101202.88;5110015;28;20032;-53
2022/09/12 03:29:59;;;;;;;47.28;22.38;;;;;;;14.01;94.64;101206.53;5109599;28;20062;-52
2022/09/12 03:32:44;;;;;;;41.97;22.15;;;;;;;14.03;94.84;101206.38;5108642;28;20097;-53
2022/09/12 03:35:12;;;;;;;44.78;22.00;;;;;;;14.02;94.81;101212.69;5109689;28;20066;-52
2022/09/12 03:37:39;;;;;;;41.00;21.70;;;;;;;13.97;94.83;101204.34;5109379;28;20469;-52
2022/09/12 03:40:08;;;;;;;44.90;21.02;;;;;;;14.02;94.43;101202.03;5109512;28;20435;-51
2022/09/12 03:42:34;;;;;;;48.00;21.27;;;;;;;13.99;94.16;101199.72;5109802;28;20040;-51
2022/09/12 03:45:02;;;;;;;39.13;20.90;;;;;;;13.99;94.80;101208.53;5109396;28;20039;-52
2022/09/12 03:47:29;;;;;;;42.65;20.27;;;;;;;13.97;94.69;101207.88;5109723;28;20046;-53
2022/09/12 03:49:56;;;;;;;48.03;20.80;;;;;;;13.94;94.68;101199.38;5109964;28;20058;-52
2022/09/12 03:52:23;;;;;;;44.63;21.13;;;;;;;13.92;94.96;101207.53;5107905;28;20111;-54
2022/09/12 03:54:49;;;;;;;40.63;21.23;;;;;;;13.95;94.70;101203.69;5108031;28;20047;-52
2022/09/12 03:57:16;;;;;;;41.15;20.83;;;;;;;13.96;94.64;101205.38;5108988;28;20044;-53
2022/09/12 03:59:43;;;;;;;40.40;20.13;;;;;;;13.92;94.81;101201.38;5109209;28;20044;-53
2022/09/12 04:02:12;;;;;;;41.25;21.30;;;;;;;13.80;95.25;101191.00;5109301;28;20036;-53
2022/09/12 04:04:42;;;;;;;45.72;21.38;;;;;;;13.79;95.40;101192.00;5107145;28;20043;-53
2022/09/12 04:07:10;;;;;;;43.47;20.42;;;;;;;13.85;95.26;101193.19;5109538;28;20036;-52
2022/09/12 04:09:36;;;;;;;42.83;20.55;;;;;;;13.83;94.86;101188.00;5108895;28;20093;-53
2022/09/12 04:12:03;;;;;;;40.63;19.08;;;;;;;13.90;94.25;101184.66;5108946;28;20040;-53
2022/09/12 04:14:31;;;;;;;40.83;19.55;;;;;;;13.81;94.60;101183.84;5108760;28;20063;-53
2022/09/12 04:16:57;;;;;;;37.35;19.73;;;;;;;13.83;94.78;101190.66;5108989;28;20048;-52
2022/09/12 04:19:25;;;;;;;36.70;19.42;;;;;;;13.90;94.65;101192.66;5109040;28;20065;-51
2022/09/12 04:21:52;;;;;;;42.03;19.48;;;;;;;13.92;94.42;101185.38;5108590;28;20062;-52
2022/09/12 04:24:19;;;;;;;40.55;19.95;;;;;;;13.87;94.43;101191.19;5108987;28;20035;-52
2022/09/12 04:26:45;;;;;;;46.45;19.98;;;;;;;13.86;94.88;101188.66;5108416;28;20072;-52
2022/09/12 04:29:13;;;;;;;36.35;18.83;;;;;;;13.84;94.88;101186.16;5100568;28;20036;-52
2022/09/12 04:31:41;;;;;;;38.15;19.70;;;;;;;13.78;95.33;101178.84;5094713;28;20044;-53
2022/09/12 04:34:08;;;;;;;40.88;19.77;;;;;;;13.80;94.82;101175.00;5093821;28;20047;-52
2022/09/12 04:36:36;;;;;;;41.25;19.45;;;;;;;13.87;94.61;101190.34;5095004;28;20040;-52
2022/09/12 04:39:04;;;;;;;39.97;20.33;;;;;;;13.83;94.60;101189.84;5094533;28;20397;-52
2022/09/12 04:41:33;;;;;;;36.25;19.90;;;;;;;13.75;94.75;101173.81;5094954;28;20044;-53
2022/09/12 04:44:04;;;;;;;40.47;20.27;;;;;;;13.80;95.19;101182.16;5094754;28;20072;-52
2022/09/12 04:46:35;;;;;;;42.15;20.45;;;;;;;13.81;95.11;101183.84;5093383;28;20054;-52
2022/09/12 04:49:02;;;;;;;38.20;21.00;;;;;;;13.77;95.35;101183.34;5093579;28;20119;-53
2022/09/12 04:51:32;;;;;;;43.30;20.75;;;;;;;13.82;95.07;101174.84;5079166;28;20117;-52
2022/09/12 04:54:03;;;;;;;37.22;19.73;;;;;;;13.86;94.66;101170.00;5089587;28;20115;-51
2022/09/12 04:56:30;;;;;;;36.47;19.58;;;;;;;13.81;94.73;101173.19;5073893;28;20041;-53
2022/09/12 04:58:59;;;;;;;39.45;18.45;;;;;;;13.80;94.86;101174.16;5073173;28;20044;-52
2022/09/12 05:01:28;;;;;;;37.38;19.40;;;;;;;13.85;94.72;101166.50;5074333;28;20482;-53
2022/09/12 05:03:56;;;;;;;35.10;19.10;;;;;;;13.82;94.72;101169.50;5074434;28;20045;-53
2022/09/12 05:06:25;;;;;;;39.30;18.25;;;;;;;13.79;95.06;101173.34;5091437;28;20036;-52
2022/09/12 05:08:53;;;;;;;34.75;18.75;;;;;;;13.80;94.98;101168.84;5094308;28;20039;-54
2022/09/12 05:11:22;;;;;;;37.25;18.13;;;;;;;13.78;94.87;101168.16;5094314;28;20044;-54
2022/09/12 05:13:51;;;;;;;35.07;18.90;;;;;;;13.78;95.01;101168.16;5093818;28;20122;-54
2022/09/12 05:16:20;;;;;;;36.03;17.33;;;;;;;13.75;94.55;101158.69;5094444;28;20051;-54
2022/09/12 05:18:49;;;;;;;39.83;18.48;;;;;;;13.81;94.81;101166.00;5093731;28;20064;-53
2022/09/12 05:21:19;;;;;;;38.58;18.25;;;;;;;13.76;94.53;101156.84;5093853;28;20044;-53
2022/09/12 05:23:47;;;;;;;35.33;18.30;;;;;;;13.79;95.11;101157.34;5093910;28;20040;-51
2022/09/12 05:26:15;;;;;;;32.75;17.48;;;;;;;13.84;94.64;101159.50;5094124;28;20123;-53
2022/09/12 05:28:42;;;;;;;33.42;17.95;;;;;;;13.94;94.41;101156.69;5093410;28;20044;-53
2022/09/12 05:31:15;;;;;;;32.60;16.98;;;;;;;13.94;94.03;101164.69;5093884;28;20047;-52
2022/09/12 05:33:44;;;;;;;38.75;18.02;;;;;;;13.95;94.27;101161.88;5093449;28;20072;-53
2022/09/12 05:36:14;;;;;;;34.03;17.33;;;;;;;14.02;94.31;101162.88;5093334;28;20386;-54
2022/09/12 05:38:41;;;;;;;32.40;16.73;;;;;;;14.04;94.01;101161.84;5094128;28;20044;-52
2022/09/12 05:41:11;;;;;;;36.55;16.90;;;;;;;14.05;93.81;101167.03;5092196;28;20044;-52
2022/09/12 05:43:43;;;;;;;34.65;16.90;;;;;;;14.09;93.78;101159.53;5093599;28;20058;-54
2022/09/12 05:46:12;;;;;;;32.28;17.23;;;;;;;14.12;93.85;101157.34;5092845;28;20147;-51
2022/09/12 05:48:41;;;;;;;35.20;16.75;;;;;;;14.14;93.72;101155.34;5093616;28;20062;-53
2022/09/12 05:51:16;;;;;;;33.25;16.67;;;;;;;14.18;93.92;101166.53;5092481;28;20101;-54
2022/09/12 05:53:42;;;;;;;38.65;16.90;;;;;;;14.23;93.51;101161.53;5093073;28;20477;-54
2022/09/12 05:56:12;;;;;;;36.70;17.40;;;;;;;14.24;93.49;101159.69;5093092;28;20097;-51
2022/09/12 05:58:41;;;;;;;32.67;16.83;;;;;;;14.30;92.83;101167.03;5092443;28;20062;-53
2022/09/12 06:01:11;;;;;;;32.63;16.65;;;;;;;14.28;93.02;101171.69;5092983;28;20044;-52
2022/09/12 06:03:43;;;;;;;32.67;16.02;;;;;;;14.36;93.18;101172.50;5093027;28;20086;-52
2022/09/12 06:06:12;;;;;;;31.92;16.00;;;;;;;14.28;93.79;101172.53;5092057;28;20040;-53
2022/09/12 06:08:41;;;;;;;29.83;16.17;;;;;;;14.37;93.59;101179.53;5092816;28;20113;-53
2022/09/12 06:11:11;;;;;;;33.05;16.70;;;;;;;14.43;93.54;101180.69;5092864;28;20155;-53
2022/09/12 06:13:39;;;;;;;31.85;16.85;;;;;;;14.44;93.60;101182.34;5093085;28;20039;-54
2022/09/12 06:16:09;;;;;;;32.25;16.02;;;;;;;14.52;93.30;101177.00;5092968;28;20135;-53
2022/09/12 06:18:37;;;;;;;27.58;15.15;;;;;;;14.55;92.75;101179.34;5091310;28;20101;-51
2022/09/12 06:21:09;;;;;;;30.25;14.55;;;;;;;14.65;92.14;101187.19;5091413;28;20028;-53
2022/09/12 06:23:36;;;;;;;26.80;14.88;;;;;;;14.68;92.28;101183.34;5092999;28;20120;-54
2022/09/12 06:26:04;;;;;;;30.60;15.07;;;;;;;14.78;92.04;101184.81;5092283;28;20040;-53
2022/09/12 06:28:34;;;;;;;27.98;14.93;;;;;;;14.81;91.45;101190.81;5091179;28;20478;-52
2022/09/12 06:31:08;;;;;;;33.33;16.38;;;;;;;14.86;91.88;101183.97;5092576;28;20043;-56
2022/09/12 06:33:36;;;;;;;26.77;15.63;;;;;;;14.92;91.72;101183.28;5092605;28;20511;-54
2022/09/12 06:36:09;;;;;;;30.55;15.73;;;;;;;14.89;91.11;101183.63;5092691;28;20044;-55
2022/09/12 06:38:39;;;;;;;27.90;14.63;;;;;;;14.96;90.91;101181.09;5092392;28;20041;-52
2022/09/12 06:41:08;;;;;;;28.50;14.63;;;;;;;15.07;90.27;101188.75;5091358;28;20097;-53
2022/09/12 06:43:34;;;;;;;25.98;14.45;;;;;;;15.12;90.01;101183.72;5092216;28;20044;-52
2022/09/12 06:46:03;;;;;;;25.75;13.65;;;;;;;15.23;90.15;101179.81;5092505;28;20048;-52
2022/09/12 06:48:30;;;;;;;30.08;15.13;;;;;;;15.21;88.66;101181.84;5091987;28;20043;-53
2022/09/12 06:50:59;;;;;;;37.63;14.73;;;;;;;15.23;88.64;101176.34;5093126;28;20040;-52
2022/09/12 06:53:29;;;;;;;30.83;14.50;;;;;;;15.34;88.67;101181.28;5110804;28;20130;-53
2022/09/12 06:55:57;;;;;;;29.13;15.25;;;;;;;15.31;88.03;101179.78;5111718;28;20044;-53
2022/09/12 06:58:25;;;;;;;31.23;15.23;;;;;;;15.44;87.54;101181.88;5111954;28;20036;-53
2022/09/12 07:01:00;;;;;;;31.67;14.35;;;;;;;15.44;86.45;101186.41;5084483;28;20386;-53
2022/09/12 07:03:27;;;;;;;28.90;15.23;;;;;;;15.55;86.12;101177.97;5092696;28;20044;-53
2022/09/12 07:05:53;;;;;;;29.48;15.52;;;;;;;15.36;87.22;101179.25;5079976;28;20044;-53
2022/09/12 07:08:20;;;;;;;29.90;15.30;;;;;;;15.43;87.00;101180.22;5082780;28;20044;-53
2022/09/12 07:10:47;;;;;;;29.00;15.32;;;;;;;15.52;87.05;101186.38;5090873;28;20047;-53
2022/09/12 07:13:13;;;;;;;30.45;15.40;;;;;;;15.62;87.35;101178.94;5104741;28;20036;-46
2022/09/12 07:15:40;;;;;;;290.10;39.75;;;;;;;15.51;86.50;101182.84;5091341;28;20048;-47
2022/09/12 07:18:09;;;;;;;30.55;15.95;;;;;;;15.52;86.48;101191.72;5100204;28;20047;-49
2022/09/12 07:20:37;;;;;;;33.15;16.10;;;;;;;15.61;86.67;101190.66;5096208;28;20477;-50
2022/09/12 07:23:03;;;;;;;31.48;16.00;;;;;;;15.72;86.37;101189.44;5085561;28;20051;-51
2022/09/12 07:25:30;;;;;;;34.38;18.02;;;;;;;15.79;86.89;101184.22;5088318;28;20047;-50
2022/09/12 07:27:57;;;;;;;31.65;15.90;;;;;;;15.83;87.01;101190.91;5087450;28;20040;-48
2022/09/12 07:30:23;;;;;;;33.47;16.50;;;;;;;15.84;86.26;101187.19;5094787;28;20070;-46
2022/09/12 07:32:52;;;;;;;32.33;17.05;;;;;;;15.87;85.89;101186.84;5083886;28;20082;-48
2022/09/12 07:35:20;;;;;;;34.85;16.52;;;;;;;15.89;86.15;101182.16;5082388;28;20086;-50
2022/09/12 07:37:47;;;;;;;32.30;16.67;;;;;;;15.99;85.70;101180.06;5084629;28;20032;-48
2022/09/12 07:40:13;;;;;;;30.08;16.48;;;;;;;15.94;85.71;101185.13;5083393;28;20066;-48
2022/09/12 07:42:40;;;;;;;28.45;16.33;;;;;;;16.15;85.72;101179.09;5092230;28;20097;-52
2022/09/12 07:45:07;;;;;;;27.85;15.77;;;;;;;16.14;84.65;101176.63;5105773;28;20545;-48
2022/09/12 07:47:34;;;;;;;28.50;15.15;;;;;;;16.24;84.22;101172.66;5103974;28;20050;-51
2022/09/12 07:50:01;;;;;;;30.23;15.25;;;;;;;16.14;84.70;101172.09;5088724;28;20105;-47
2022/09/12 07:52:28;;;;;;;29.30;15.10;;;;;;;16.39;83.97;101161.16;5082318;28;20126;-49
2022/09/12 07:54:54;;;;;;;29.73;15.35;;;;;;;16.34;83.54;101163.56;5094480;28;20044;-47
2022/09/12 07:57:21;;;;;;;30.15;16.05;;;;;;;16.43;83.37;101167.81;5082512;28;20330;-47
2022/09/12 07:59:48;;;;;;;30.65;14.52;;;;;;;16.49;83.09;101175.13;5094970;28;20039;-51
2022/09/12 08:02:18;;;;;;;26.80;15.02;;;;;;;16.35;82.99;101175.91;5079403;28;20037;-48
2022/09/12 08:04:47;;;;;;;43.85;15.48;;;;;;;16.31;83.22;101173.59;5083747;28;20488;-49
2022/09/12 08:07:14;;;;;;;32.20;15.52;;;;;;;16.37;83.38;101176.56;5083000;28;20071;-49
2022/09/12 08:09:40;;;;;;;27.58;14.75;;;;;;;16.60;83.36;101176.53;5090417;28;20097;-49
2022/09/12 08:12:07;;;;;;;27.92;14.65;;;;;;;16.50;82.65;101166.09;5098575;28;20043;-48
2022/09/12 08:14:34;;;;;;;35.92;15.73;;;;;;;16.40;82.42;101165.50;5106027;28;20036;-50
2022/09/12 08:17:00;;;;;;;31.17;15.50;;;;;;;16.57;82.84;101172.38;5089920;28;20044;-49
2022/09/12 08:19:28;;;;;;;32.95;14.43;;;;;;;16.75;83.33;101180.03;5099849;28;20075;-50
2022/09/12 08:21:55;;;;;;;32.08;15.13;;;;;;;16.78;82.51;101187.72;5082157;28;20068;-48
2022/09/12 08:24:21;;;;;;;34.65;15.40;;;;;;;16.89;81.92;101191.81;5077212;28;20040;-49
2022/09/12 08:26:48;;;;;;;29.27;14.80;;;;;;;17.06;80.54;101201.34;5090674;28;20397;-48
2022/09/12 08:29:15;;;;;;;27.75;15.00;;;;;;;17.11;80.08;101191.91;5089161;28;20041;-49
2022/09/12 08:31:41;;;;;;;30.23;14.55;;;;;;;17.19;81.14;101184.59;5081175;28;20127;-48
2022/09/12 08:34:08;;;;;;;29.55;14.63;;;;;;;17.30;80.07;101185.13;5107855;28;20086;-49
2022/09/12 08:36:35;;;;;;;28.67;15.32;;;;;;;17.31;79.38;101189.47;5079450;28;20032;-48
2022/09/12 08:39:04;;;;;;;26.90;14.68;;;;;;;17.46;78.53;101183.06;5101063;28;20665;-49
2022/09/12 08:41:54;;;;;;;34.47;14.23;;;;;;;17.60;78.61;101184.03;5088721;28;20041;-49
2022/09/12 08:44:35;;;;;;;27.88;14.27;;;;;;;17.90;78.07;101181.28;5109579;28;20036;-52
2022/09/12 08:47:25;;;;;;;30.38;14.10;;;;;;;17.97;76.72;101175.97;5093991;28;20044;-50
2022/09/12 08:50:14;;;;;;;29.38;14.27;;;;;;;18.07;75.42;101176.47;5102225;27;20040;-49
2022/09/12 08:53:03;;;;;;;27.35;14.68;;;;;;;18.35;74.79;101178.34;5090050;28;20036;-50
2022/09/12 08:55:41;;;;;;;27.13;14.27;;;;;;;18.60;73.54;101176.06;5090683;28;20035;-49
2022/09/12 09:01:22;;;;;;;25.80;14.65;;;;;;;18.70;72.98;101176.56;5120262;27;20189;-49
2022/09/12 09:07:14;;;;;;;28.83;13.60;;;;;;;18.95;72.89;101174.22;5101437;27;20372;-47
2022/09/12 09:12:50;;;;;;;28.65;14.50;;;;;;;19.12;71.62;101174.72;5064938;28;20387;-57
2022/09/12 09:15:42;;;;;;;24.67;14.23;;;;;;;19.37;71.44;101172.34;5074173;28;20036;-57
2022/09/12 09:18:31;;;;;;;25.08;14.35;;;;;;;19.99;70.02;101166.09;5066134;28;20094;-57
2022/09/12 09:21:03;;;;;;;27.33;14.15;;;;;;;20.75;67.78;101167.50;5070380;28;20051;-57
2022/09/12 09:23:41;;;;;;;29.25;14.95;;;;;;;21.87;61.74;101169.94;5052740;28;20052;-57
2022/09/12 09:26:15;;;;;;;31.23;14.18;;;;;;;22.08;62.86;101164.13;5070782;28;20081;-57
2022/09/12 09:28:50;;;;;;;24.52;13.85;;;;;;;22.54;61.21;101168.34;5070652;28;20045;-57
2022/09/12 09:31:20;;;;;;;29.10;13.40;;;;;;;23.35;57.50;101171.78;5056517;28;20045;-57
2022/09/12 09:33:50;;;;;;;29.55;14.02;;;;;;;23.71;55.36;101175.47;5060074;28;20036;-57
2022/09/12 09:36:46;;;;;;;26.45;13.32;;;;;;;24.76;51.53;101156.03;5072220;28;20036;-57
2022/09/12 09:42:26;;;;;;;22.75;12.85;;;;;;;26.21;46.51;101159.31;5113305;27;20398;-57
2022/09/12 09:44:59;;;;;;;24.45;12.85;;;;;;;26.44;45.88;101160.19;5115215;28;20533;-57
2022/09/12 09:47:25;;;;;;;24.05;12.20;;;;;;;27.62;45.03;101164.38;5090923;28;20032;-57
2022/09/12 09:49:52;;;;;;;24.85;12.45;;;;;;;27.75;43.05;101158.47;5123532;28;20446;-57
2022/09/12 09:52:27;;;;;;;21.98;11.75;;;;;;;29.05;40.38;101153.63;5093715;28;20485;-57
2022/09/12 09:54:58;;;;;;;20.48;11.57;;;;;;;28.77;39.96;101154.84;5104653;28;20059;-57
2022/09/12 09:57:41;;;;;;;20.98;12.10;;;;;;;28.47;40.90;101148.13;5108103;28;20050;-58
2022/09/12 10:00:26;;;;;;;23.33;12.25;;;;;;;28.93;41.29;101146.75;5092967;28;20039;-57
2022/09/12 10:05:50;;;;;;;20.95;11.50;;;;;;;29.80;37.78;101142.31;5105844;27;20399;-58
2022/09/12 10:08:28;;;;;;;24.50;12.70;;;;;;;29.46;38.49;101139.25;5119880;27;20035;-57
2022/09/12 10:11:02;;;;;;;21.23;12.07;;;;;;;29.24;40.26;101131.28;5098831;28;20507;-57
2022/09/12 10:13:34;;;;;;;24.98;11.43;;;;;;;28.94;39.82;101126.53;5118054;28;20139;-58
2022/09/12 10:16:02;;;;;;;;;;;;;;;28.09;40.22;101132.91;5105883;28;20050;-59
2022/09/12 10:18:35;;;;;;;19.10;11.98;;;;;;;27.31;42.62;101133.28;5109868;27;19964;-47
2022/09/12 10:21:12;;;;;;;25.40;12.18;;;;;;;26.50;43.67;101123.00;5103168;28;20052;-49
2022/09/12 10:23:42;;;;;;;20.30;10.73;;;;;;;26.98;44.33;101126.91;5122001;28;20069;-47
2022/09/12 10:26:15;;;;;;;23.02;11.20;;;;;;;26.95;43.82;101124.69;5111426;28;20036;-48
2022/09/12 10:28:50;;;;;;;21.65;10.70;;;;;;;26.29;43.76;101119.19;5116146;28;20420;-56
2022/09/12 10:31:45;;;;;;;18.88;9.82;;;;;;;26.62;45.22;101123.72;5125562;27;20043;-49
2022/09/12 10:34:29;;;;;;;23.75;10.18;;;;;;;26.31;45.04;101115.13;5100916;28;20031;-52
2022/09/12 10:37:03;;;;;;;17.13;9.02;;;;;;;26.10;45.72;101102.31;5109641;28;20040;-42
2022/09/12 10:39:32;;;;;;;20.77;8.23;;;;;;;26.19;45.96;101108.97;5107615;28;20048;-41
2022/09/12 10:41:59;;;;;;;20.55;9.35;;;;;;;25.75;45.55;101101.47;5104774;28;20051;-42
2022/09/12 10:44:29;;;;;;;36.80;16.77;;;;;;;26.11;46.23;101096.63;5118352;27;20044;-41
2022/09/12 10:46:58;;;;;;;17.63;8.82;;;;;;;25.98;44.44;101094.25;5091211;28;20059;-50
2022/09/12 10:49:28;;;;;;;17.52;7.88;;;;;;;25.85;44.79;101087.22;5109749;28;20062;-48
2022/09/12 10:52:14;;;;;;;16.05;7.70;;;;;;;26.16;46.92;101079.53;5103706;28;20123;-55
2022/09/12 10:54:41;;;;;;;13.50;6.60;;;;;;;25.77;45.57;101079.47;5108412;27;20052;-55
2022/09/12 10:57:21;;;;;;;18.95;6.35;;;;;;;26.08;45.71;101080.00;5105557;28;20094;-59
2022/09/12 11:00:16;;;;;;;13.02;6.40;;;;;;;26.27;43.30;101077.78;5098838;28;20039;-59
2022/09/12 11:03:15;;;;;;;13.80;6.35;;;;;;;26.26;44.45;101070.72;5097026;28;20063;-58
2022/09/12 11:05:50;;;;;;;12.90;5.78;;;;;;;26.25;43.29;101075.34;5090761;28;20528;-58
2022/09/12 11:08:44;;;;;;;11.50;5.45;;;;;;;26.14;43.21;101071.66;5091730;28;20047;-58
2022/09/12 11:11:41;;;;;;;15.77;5.30;;;;;;;25.97;44.37;101063.50;5115264;28;20636;-58
2022/09/12 11:14:37;;;;;;;12.65;5.85;;;;;;;25.95;45.31;101059.41;5111253;28;20034;-59
2022/09/12 11:17:29;;;;;;;13.95;5.55;;;;;;;25.99;44.10;101052.41;5088864;28;20074;-59
2022/09/12 11:20:15;;;;;;;12.98;5.40;;;;;;;26.02;43.57;101058.16;5084559;28;20052;-59
2022/09/12 11:23:22;;;;;;;15.68;5.78;;;;;;;26.24;43.52;101051.94;5087767;28;20052;-59
2022/09/12 11:26:03;;;;;;;12.02;5.97;;;;;;;26.34;43.92;101045.81;5080525;28;20071;-60
2022/09/12 11:28:37;;;;;;;16.65;5.80;;;;;;;26.61;43.28;101040.47;5085706;28;20039;-59
2022/09/12 11:34:08;;;;;;;15.30;5.90;;;;;;;26.35;41.66;101036.59;5120342;27;20123;-58
2022/09/12 11:37:03;;;;;;;13.57;4.97;;;;;;;26.14;42.55;101039.03;5107752;28;20036;-58
2022/09/12 11:39:39;;;;;;;9.52;4.90;;;;;;;25.90;41.03;101046.53;5106062;28;20040;-58
2022/09/12 11:42:15;;;;;;;10.65;4.70;;;;;;;26.07;43.11;101048.44;5078924;28;20097;-58
2022/09/12 11:44:47;;;;;;;10.38;5.43;;;;;;;26.24;43.41;101041.06;5107223;28;20508;-57
2022/09/12 11:47:14;;;;;;;10.93;5.55;;;;;;;26.35;40.58;101034.69;5102952;28;20122;-57
2022/09/12 11:49:50;;;;;;;12.00;5.10;;;;;;;26.15;40.99;101032.50;5055212;28;20037;-57
2022/09/12 11:52:21;;;;;;;14.57;5.13;;;;;;;26.33;40.93;101033.31;5107907;28;20392;-58
2022/09/12 11:55:16;;;;;;;13.88;5.00;;;;;;;26.63;41.57;101032.88;5106813;28;20264;-58
2022/09/12 11:57:46;;;;;;;10.60;4.80;;;;;;;26.57;41.00;101031.13;5091134;28;20135;-58
2022/09/12 12:00:36;;;;;;;14.25;5.10;;;;;;;26.76;40.53;101027.06;5106637;28;20393;-58
2022/09/12 12:03:30;;;;;;;12.52;4.68;;;;;;;26.72;40.61;101031.34;5103523;28;20066;-58
2022/09/12 12:06:04;;;;;;;11.25;5.00;;;;;;;27.16;39.93;101034.00;5105778;28;20457;-59
2022/09/12 12:08:37;;;;;;;9.68;5.05;;;;;;;27.45;39.40;101031.00;5101800;28;20072;-58
2022/09/12 12:11:06;;;;;;;19.05;6.07;;;;;;;27.75;39.22;101027.66;5096176;28;20046;-58
2022/09/12 12:13:56;;;;;;;23.92;8.90;;;;;;;28.36;37.48;101010.06;5096143;28;20028;-58
2022/09/12 12:16:30;;;;;;;10.52;4.90;;;;;;;28.62;36.82;101015.63;5097134;28;20047;-58
2022/09/12 12:19:01;;;;;;;16.98;6.97;;;;;;;28.27;37.10;101012.47;5105490;28;20093;-59